sensor_id;sensor_type;location;lat;lon;timestamp;P1;durP1;ratioP1;P2;durP2;ratioP2
27505;SDS011;14939;43.596;1.320;2024-01-25T00:02:06;110.90;;;50.55;;
27505;SDS011;14939;43.596;1.320;2024-01-25T00:04:31;102.05;;;52.20;;
27505;SDS011;14939;43.596;1.320;2024-01-25T00:06:57;139.95;;;57.78;;
27505;SDS011;14939;43.596;1.320;2024-01-25T00:09:23;217.98;;;67.53;;
27505;SDS011;14939;43.596;1.320;2024-01-25T00:11:48;169.20;;;65.43;;
27505;SDS011;14939;43.596;1.320;2024-01-25T00:14:16;132.63;;;61.65;;
27505;SDS011;14939;43.596;1.320;2024-01-25T00:16:42;197.93;;;72.50;;
27505;SDS011;14939;43.596;1.320;2024-01-25T00:19:07;147.18;;;64.85;;
27505;SDS011;14939;43.596;1.320;2024-01-25T00:21:33;255.40;;;80.55;;
27505;SDS011;14939;43.596;1.320;2024-01-25T00:23:59;187.77;;;70.28;;
27505;SDS011;14939;43.596;1.320;2024-01-25T00:26:25;211.90;;;72.88;;
27505;SDS011;14939;43.596;1.320;2024-01-25T00:28:50;202.88;;;74.95;;
27505;SDS011;14939;43.596;1.320;2024-01-25T00:31:16;218.40;;;74.85;;
27505;SDS011;14939;43.596;1.320;2024-01-25T00:33:42;177.48;;;70.18;;
27505;SDS011;14939;43.596;1.320;2024-01-25T00:36:07;166.50;;;70.88;;
27505;SDS011;14939;43.596;1.320;2024-01-25T00:38:34;150.05;;;68.70;;
27505;SDS011;14939;43.596;1.320;2024-01-25T00:41:00;178.88;;;76.05;;
27505;SDS011;14939;43.596;1.320;2024-01-25T00:43:26;142.82;;;64.60;;
27505;SDS011;14939;43.596;1.320;2024-01-25T00:45:52;98.25;;;53.00;;
27505;SDS011;14939;43.596;1.320;2024-01-25T00:48:18;101.20;;;47.78;;
27505;SDS011;14939;43.596;1.320;2024-01-25T00:50:43;92.05;;;46.97;;
27505;SDS011;14939;43.596;1.320;2024-01-25T00:53:10;111.10;;;48.85;;
27505;SDS011;14939;43.596;1.320;2024-01-25T00:55:36;80.25;;;42.05;;
27505;SDS011;14939;43.596;1.320;2024-01-25T00:58:02;89.53;;;48.50;;
27505;SDS011;14939;43.596;1.320;2024-01-25T01:00:28;89.57;;;46.05;;
27505;SDS011;14939;43.596;1.320;2024-01-25T01:02:54;85.45;;;43.42;;
27505;SDS011;14939;43.596;1.320;2024-01-25T01:05:22;76.53;;;39.88;;
27505;SDS011;14939;43.596;1.320;2024-01-25T01:07:48;104.63;;;44.67;;
27505;SDS011;14939;43.596;1.320;2024-01-25T01:10:14;92.25;;;46.50;;
27505;SDS011;14939;43.596;1.320;2024-01-25T01:12:40;78.25;;;41.55;;
27505;SDS011;14939;43.596;1.320;2024-01-25T01:15:06;101.97;;;45.55;;
27505;SDS011;14939;43.596;1.320;2024-01-25T01:17:32;118.82;;;46.65;;
27505;SDS011;14939;43.596;1.320;2024-01-25T01:19:57;177.57;;;58.25;;
27505;SDS011;14939;43.596;1.320;2024-01-25T01:22:23;174.95;;;54.75;;
27505;SDS011;14939;43.596;1.320;2024-01-25T01:24:48;122.47;;;47.25;;
27505;SDS011;14939;43.596;1.320;2024-01-25T01:27:14;162.25;;;53.97;;
27505;SDS011;14939;43.596;1.320;2024-01-25T01:29:40;140.07;;;50.65;;
27505;SDS011;14939;43.596;1.320;2024-01-25T01:32:06;102.88;;;48.15;;
27505;SDS011;14939;43.596;1.320;2024-01-25T01:34:32;88.80;;;39.88;;
27505;SDS011;14939;43.596;1.320;2024-01-25T01:36:57;88.88;;;38.97;;
27505;SDS011;14939;43.596;1.320;2024-01-25T01:39:23;143.35;;;44.60;;
27505;SDS011;14939;43.596;1.320;2024-01-25T01:41:50;118.25;;;40.85;;
27505;SDS011;14939;43.596;1.320;2024-01-25T01:44:16;111.03;;;40.60;;
27505;SDS011;14939;43.596;1.320;2024-01-25T01:46:41;108.05;;;38.78;;
27505;SDS011;14939;43.596;1.320;2024-01-25T01:49:08;116.53;;;40.30;;
27505;SDS011;14939;43.596;1.320;2024-01-25T01:51:36;174.80;;;44.17;;
27505;SDS011;14939;43.596;1.320;2024-01-25T01:54:03;211.80;;;52.95;;
27505;SDS011;14939;43.596;1.320;2024-01-25T01:56:32;129.70;;;41.55;;
27505;SDS011;14939;43.596;1.320;2024-01-25T01:59:02;84.78;;;37.08;;
27505;SDS011;14939;43.596;1.320;2024-01-25T02:01:30;108.97;;;37.97;;
27505;SDS011;14939;43.596;1.320;2024-01-25T02:03:56;63.22;;;36.55;;
27505;SDS011;14939;43.596;1.320;2024-01-25T02:06:25;89.93;;;36.03;;
27505;SDS011;14939;43.596;1.320;2024-01-25T02:08:51;61.08;;;34.15;;
27505;SDS011;14939;43.596;1.320;2024-01-25T02:11:18;93.25;;;37.33;;
27505;SDS011;14939;43.596;1.320;2024-01-25T02:13:47;73.70;;;35.10;;
27505;SDS011;14939;43.596;1.320;2024-01-25T02:16:12;72.85;;;35.15;;
27505;SDS011;14939;43.596;1.320;2024-01-25T02:18:40;110.28;;;42.58;;
27505;SDS011;14939;43.596;1.320;2024-01-25T02:21:06;65.07;;;34.58;;
27505;SDS011;14939;43.596;1.320;2024-01-25T02:23:32;78.95;;;39.25;;
27505;SDS011;14939;43.596;1.320;2024-01-25T02:25:57;50.33;;;32.47;;
27505;SDS011;14939;43.596;1.320;2024-01-25T02:28:23;55.72;;;33.13;;
27505;SDS011;14939;43.596;1.320;2024-01-25T02:30:49;57.05;;;35.75;;
27505;SDS011;14939;43.596;1.320;2024-01-25T02:33:14;58.70;;;32.80;;
27505;SDS011;14939;43.596;1.320;2024-01-25T02:35:40;65.35;;;32.00;;
27505;SDS011;14939;43.596;1.320;2024-01-25T02:38:06;54.63;;;31.13;;
27505;SDS011;14939;43.596;1.320;2024-01-25T02:40:31;41.13;;;28.83;;
27505;SDS011;14939;43.596;1.320;2024-01-25T02:42:57;44.53;;;29.75;;
27505;SDS011;14939;43.596;1.320;2024-01-25T02:45:23;38.22;;;26.80;;
27505;SDS011;14939;43.596;1.320;2024-01-25T02:47:48;44.35;;;28.67;;
27505;SDS011;14939;43.596;1.320;2024-01-25T02:50:14;37.35;;;26.38;;
27505;SDS011;14939;43.596;1.320;2024-01-25T02:52:40;45.17;;;28.52;;
27505;SDS011;14939;43.596;1.320;2024-01-25T02:55:06;59.55;;;28.13;;
27505;SDS011;14939;43.596;1.320;2024-01-25T02:57:32;63.13;;;30.45;;
27505;SDS011;14939;43.596;1.320;2024-01-25T02:59:57;44.22;;;26.38;;
27505;SDS011;14939;43.596;1.320;2024-01-25T03:02:23;45.63;;;28.92;;
27505;SDS011;14939;43.596;1.320;2024-01-25T03:04:49;47.05;;;26.85;;
27505;SDS011;14939;43.596;1.320;2024-01-25T03:07:15;49.80;;;26.92;;
27505;SDS011;14939;43.596;1.320;2024-01-25T03:09:40;60.40;;;28.90;;
27505;SDS011;14939;43.596;1.320;2024-01-25T03:12:06;50.72;;;25.95;;
27505;SDS011;14939;43.596;1.320;2024-01-25T03:14:32;47.15;;;27.25;;
27505;SDS011;14939;43.596;1.320;2024-01-25T03:16:57;56.40;;;27.95;;
27505;SDS011;14939;43.596;1.320;2024-01-25T03:19:24;77.35;;;33.90;;
27505;SDS011;14939;43.596;1.320;2024-01-25T03:21:50;55.35;;;28.92;;
27505;SDS011;14939;43.596;1.320;2024-01-25T03:24:16;49.35;;;27.13;;
27505;SDS011;14939;43.596;1.320;2024-01-25T03:26:42;58.70;;;28.85;;
27505;SDS011;14939;43.596;1.320;2024-01-25T03:29:08;63.30;;;28.08;;
27505;SDS011;14939;43.596;1.320;2024-01-25T03:31:33;56.17;;;26.77;;
27505;SDS011;14939;43.596;1.320;2024-01-25T03:34:01;61.47;;;29.30;;
27505;SDS011;14939;43.596;1.320;2024-01-25T03:36:27;61.17;;;28.35;;
27505;SDS011;14939;43.596;1.320;2024-01-25T03:38:52;60.88;;;29.05;;
27505;SDS011;14939;43.596;1.320;2024-01-25T03:41:18;54.72;;;27.88;;
27505;SDS011;14939;43.596;1.320;2024-01-25T03:43:43;67.68;;;30.05;;
27505;SDS011;14939;43.596;1.320;2024-01-25T03:46:10;58.17;;;30.05;;
27505;SDS011;14939;43.596;1.320;2024-01-25T03:48:36;68.32;;;29.15;;
27505;SDS011;14939;43.596;1.320;2024-01-25T03:51:02;56.33;;;28.40;;
27505;SDS011;14939;43.596;1.320;2024-01-25T03:53:28;59.88;;;26.92;;
27505;SDS011;14939;43.596;1.320;2024-01-25T03:55:54;68.55;;;28.42;;
27505;SDS011;14939;43.596;1.320;2024-01-25T03:58:19;62.90;;;27.70;;
27505;SDS011;14939;43.596;1.320;2024-01-25T04:00:45;73.97;;;30.90;;
27505;SDS011;14939;43.596;1.320;2024-01-25T04:03:11;55.80;;;27.80;;
27505;SDS011;14939;43.596;1.320;2024-01-25T04:05:37;48.13;;;26.15;;
27505;SDS011;14939;43.596;1.320;2024-01-25T04:08:04;64.20;;;27.88;;
27505;SDS011;14939;43.596;1.320;2024-01-25T04:10:30;63.50;;;26.80;;
27505;SDS011;14939;43.596;1.320;2024-01-25T04:12:56;48.97;;;25.58;;
27505;SDS011;14939;43.596;1.320;2024-01-25T04:15:22;54.75;;;27.75;;
27505;SDS011;14939;43.596;1.320;2024-01-25T04:17:47;69.75;;;26.83;;
27505;SDS011;14939;43.596;1.320;2024-01-25T04:20:14;75.15;;;30.00;;
27505;SDS011;14939;43.596;1.320;2024-01-25T04:22:40;65.65;;;28.25;;
27505;SDS011;14939;43.596;1.320;2024-01-25T04:25:05;55.63;;;25.38;;
27505;SDS011;14939;43.596;1.320;2024-01-25T04:27:31;49.60;;;25.50;;
27505;SDS011;14939;43.596;1.320;2024-01-25T04:29:57;69.13;;;26.95;;
27505;SDS011;14939;43.596;1.320;2024-01-25T04:32:23;60.90;;;25.13;;
27505;SDS011;14939;43.596;1.320;2024-01-25T04:34:48;179.05;;;33.67;;
27505;SDS011;14939;43.596;1.320;2024-01-25T04:37:14;72.70;;;28.48;;
27505;SDS011;14939;43.596;1.320;2024-01-25T04:39:40;56.88;;;26.35;;
27505;SDS011;14939;43.596;1.320;2024-01-25T04:42:06;52.15;;;25.95;;
27505;SDS011;14939;43.596;1.320;2024-01-25T04:44:32;116.03;;;30.27;;
27505;SDS011;14939;43.596;1.320;2024-01-25T04:46:58;108.20;;;29.80;;
27505;SDS011;14939;43.596;1.320;2024-01-25T04:49:23;106.65;;;29.95;;
27505;SDS011;14939;43.596;1.320;2024-01-25T04:51:50;83.95;;;27.55;;
27505;SDS011;14939;43.596;1.320;2024-01-25T04:54:15;53.45;;;24.35;;
27505;SDS011;14939;43.596;1.320;2024-01-25T04:56:41;60.05;;;25.85;;
27505;SDS011;14939;43.596;1.320;2024-01-25T04:59:07;109.22;;;28.42;;
27505;SDS011;14939;43.596;1.320;2024-01-25T05:01:33;67.82;;;26.52;;
27505;SDS011;14939;43.596;1.320;2024-01-25T05:03:59;59.42;;;25.50;;
27505;SDS011;14939;43.596;1.320;2024-01-25T05:06:25;52.95;;;22.88;;
27505;SDS011;14939;43.596;1.320;2024-01-25T05:08:50;76.18;;;25.00;;
27505;SDS011;14939;43.596;1.320;2024-01-25T05:11:16;71.90;;;25.92;;
27505;SDS011;14939;43.596;1.320;2024-01-25T05:13:42;52.97;;;24.65;;
27505;SDS011;14939;43.596;1.320;2024-01-25T05:16:08;73.35;;;28.00;;
27505;SDS011;14939;43.596;1.320;2024-01-25T05:18:34;56.22;;;26.55;;
27505;SDS011;14939;43.596;1.320;2024-01-25T05:21:00;68.82;;;26.55;;
27505;SDS011;14939;43.596;1.320;2024-01-25T05:23:25;70.45;;;26.73;;
27505;SDS011;14939;43.596;1.320;2024-01-25T05:25:51;53.47;;;23.77;;
27505;SDS011;14939;43.596;1.320;2024-01-25T05:28:17;73.20;;;27.77;;
27505;SDS011;14939;43.596;1.320;2024-01-25T05:30:43;63.83;;;26.50;;
27505;SDS011;14939;43.596;1.320;2024-01-25T05:33:08;86.53;;;26.75;;
27505;SDS011;14939;43.596;1.320;2024-01-25T05:35:34;66.72;;;25.48;;
27505;SDS011;14939;43.596;1.320;2024-01-25T05:38:00;144.77;;;33.55;;
27505;SDS011;14939;43.596;1.320;2024-01-25T05:40:25;69.68;;;27.30;;
27505;SDS011;14939;43.596;1.320;2024-01-25T05:42:51;53.17;;;23.52;;
27505;SDS011;14939;43.596;1.320;2024-01-25T05:45:17;49.75;;;24.10;;
27505;SDS011;14939;43.596;1.320;2024-01-25T05:47:45;53.95;;;23.52;;
27505;SDS011;14939;43.596;1.320;2024-01-25T05:50:11;50.13;;;22.85;;
27505;SDS011;14939;43.596;1.320;2024-01-25T05:52:36;62.75;;;25.08;;
27505;SDS011;14939;43.596;1.320;2024-01-25T05:55:03;67.07;;;26.30;;
27505;SDS011;14939;43.596;1.320;2024-01-25T05:57:32;57.95;;;25.83;;
27505;SDS011;14939;43.596;1.320;2024-01-25T05:59:59;81.43;;;27.13;;
27505;SDS011;14939;43.596;1.320;2024-01-25T06:02:25;57.33;;;26.33;;
27505;SDS011;14939;43.596;1.320;2024-01-25T06:04:50;167.95;;;33.35;;
27505;SDS011;14939;43.596;1.320;2024-01-25T06:07:16;73.72;;;24.95;;
27505;SDS011;14939;43.596;1.320;2024-01-25T06:09:42;62.35;;;26.88;;
27505;SDS011;14939;43.596;1.320;2024-01-25T06:12:07;142.77;;;31.30;;
27505;SDS011;14939;43.596;1.320;2024-01-25T06:14:33;57.20;;;26.08;;
27505;SDS011;14939;43.596;1.320;2024-01-25T06:16:59;189.13;;;32.22;;
27505;SDS011;14939;43.596;1.320;2024-01-25T06:19:24;66.55;;;26.33;;
27505;SDS011;14939;43.596;1.320;2024-01-25T06:21:50;81.65;;;26.55;;
27505;SDS011;14939;43.596;1.320;2024-01-25T06:24:15;69.95;;;24.45;;
27505;SDS011;14939;43.596;1.320;2024-01-25T06:26:41;72.20;;;18.70;;
27505;SDS011;14939;43.596;1.320;2024-01-25T06:29:07;46.22;;;20.63;;
27505;SDS011;14939;43.596;1.320;2024-01-25T06:31:32;131.70;;;28.02;;
27505;SDS011;14939;43.596;1.320;2024-01-25T06:36:30;106.65;;;41.60;;
27505;SDS011;14939;43.596;1.320;2024-01-25T06:38:56;66.95;;;24.67;;
27505;SDS011;14939;43.596;1.320;2024-01-25T06:41:21;79.07;;;23.58;;
27505;SDS011;14939;43.596;1.320;2024-01-25T06:43:47;53.22;;;21.20;;
27505;SDS011;14939;43.596;1.320;2024-01-25T06:46:13;56.97;;;19.65;;
27505;SDS011;14939;43.596;1.320;2024-01-25T06:48:38;59.65;;;20.90;;
27505;SDS011;14939;43.596;1.320;2024-01-25T06:51:04;57.15;;;18.15;;
27505;SDS011;14939;43.596;1.320;2024-01-25T06:53:29;82.70;;;18.48;;
27505;SDS011;14939;43.596;1.320;2024-01-25T06:55:55;71.72;;;16.55;;
27505;SDS011;14939;43.596;1.320;2024-01-25T06:58:21;79.93;;;15.63;;
27505;SDS011;14939;43.596;1.320;2024-01-25T07:00:46;88.38;;;16.25;;
27505;SDS011;14939;43.596;1.320;2024-01-25T07:03:12;46.13;;;14.20;;
27505;SDS011;14939;43.596;1.320;2024-01-25T07:05:38;60.03;;;15.13;;
27505;SDS011;14939;43.596;1.320;2024-01-25T07:08:04;62.88;;;15.55;;
27505;SDS011;14939;43.596;1.320;2024-01-25T07:10:30;57.58;;;15.00;;
27505;SDS011;14939;43.596;1.320;2024-01-25T07:12:56;84.30;;;15.70;;
27505;SDS011;14939;43.596;1.320;2024-01-25T07:15:22;62.30;;;13.50;;
27505;SDS011;14939;43.596;1.320;2024-01-25T07:17:48;54.45;;;12.43;;
27505;SDS011;14939;43.596;1.320;2024-01-25T07:20:13;48.97;;;11.70;;
27505;SDS011;14939;43.596;1.320;2024-01-25T07:22:39;54.80;;;12.48;;
27505;SDS011;14939;43.596;1.320;2024-01-25T07:25:05;60.83;;;13.57;;
27505;SDS011;14939;43.596;1.320;2024-01-25T07:27:31;54.58;;;13.15;;
27505;SDS011;14939;43.596;1.320;2024-01-25T07:29:57;70.15;;;15.27;;
27505;SDS011;14939;43.596;1.320;2024-01-25T07:32:22;60.80;;;15.57;;
27505;SDS011;14939;43.596;1.320;2024-01-25T07:34:52;72.10;;;14.35;;
27505;SDS011;14939;43.596;1.320;2024-01-25T07:37:18;112.70;;;15.65;;
27505;SDS011;14939;43.596;1.320;2024-01-25T07:39:44;60.92;;;14.60;;
27505;SDS011;14939;43.596;1.320;2024-01-25T07:42:10;49.75;;;13.65;;
27505;SDS011;14939;43.596;1.320;2024-01-25T07:44:36;60.72;;;12.20;;
27505;SDS011;14939;43.596;1.320;2024-01-25T07:47:02;129.05;;;14.77;;
27505;SDS011;14939;43.596;1.320;2024-01-25T07:49:28;238.00;;;15.25;;
27505;SDS011;14939;43.596;1.320;2024-01-25T07:51:54;73.25;;;13.23;;
27505;SDS011;14939;43.596;1.320;2024-01-25T07:54:21;82.72;;;13.73;;
27505;SDS011;14939;43.596;1.320;2024-01-25T07:56:47;173.45;;;14.50;;
27505;SDS011;14939;43.596;1.320;2024-01-25T07:59:13;208.85;;;17.33;;
27505;SDS011;14939;43.596;1.320;2024-01-25T08:01:38;167.48;;;17.63;;
27505;SDS011;14939;43.596;1.320;2024-01-25T08:04:04;170.77;;;16.63;;
27505;SDS011;14939;43.596;1.320;2024-01-25T08:06:29;87.60;;;15.82;;
27505;SDS011;14939;43.596;1.320;2024-01-25T08:08:55;148.23;;;16.83;;
27505;SDS011;14939;43.596;1.320;2024-01-25T08:11:21;122.38;;;15.85;;
27505;SDS011;14939;43.596;1.320;2024-01-25T08:13:46;186.55;;;15.98;;
27505;SDS011;14939;43.596;1.320;2024-01-25T08:16:15;182.82;;;15.00;;
27505;SDS011;14939;43.596;1.320;2024-01-25T08:18:44;294.55;;;16.98;;
27505;SDS011;14939;43.596;1.320;2024-01-25T08:21:10;149.48;;;13.55;;
27505;SDS011;14939;43.596;1.320;2024-01-25T08:23:37;49.90;;;12.98;;
27505;SDS011;14939;43.596;1.320;2024-01-25T08:26:04;85.03;;;14.30;;
27505;SDS011;14939;43.596;1.320;2024-01-25T08:28:30;143.77;;;14.55;;
27505;SDS011;14939;43.596;1.320;2024-01-25T08:30:56;129.40;;;13.50;;
27505;SDS011;14939;43.596;1.320;2024-01-25T08:33:22;44.88;;;12.88;;
27505;SDS011;14939;43.596;1.320;2024-01-25T08:35:49;145.82;;;14.32;;
27505;SDS011;14939;43.596;1.320;2024-01-25T08:38:16;110.60;;;13.93;;
27505;SDS011;14939;43.596;1.320;2024-01-25T08:40:41;60.20;;;12.95;;
27505;SDS011;14939;43.596;1.320;2024-01-25T08:43:07;48.20;;;13.68;;
27505;SDS011;14939;43.596;1.320;2024-01-25T08:45:33;80.30;;;13.77;;
27505;SDS011;14939;43.596;1.320;2024-01-25T08:47:58;69.97;;;13.15;;
27505;SDS011;14939;43.596;1.320;2024-01-25T08:50:24;48.85;;;13.63;;
27505;SDS011;14939;43.596;1.320;2024-01-25T08:52:50;146.75;;;14.85;;
27505;SDS011;14939;43.596;1.320;2024-01-25T08:55:16;97.38;;;14.13;;
27505;SDS011;14939;43.596;1.320;2024-01-25T08:57:42;82.47;;;14.57;;
27505;SDS011;14939;43.596;1.320;2024-01-25T09:00:08;120.68;;;15.02;;
27505;SDS011;14939;43.596;1.320;2024-01-25T09:02:37;86.18;;;14.10;;
27505;SDS011;14939;43.596;1.320;2024-01-25T09:05:06;119.85;;;13.80;;
27505;SDS011;14939;43.596;1.320;2024-01-25T09:07:33;69.53;;;13.13;;
27505;SDS011;14939;43.596;1.320;2024-01-25T09:09:59;119.63;;;14.13;;
27505;SDS011;14939;43.596;1.320;2024-01-25T09:12:25;114.10;;;14.25;;
27505;SDS011;14939;43.596;1.320;2024-01-25T09:14:51;161.55;;;13.82;;
27505;SDS011;14939;43.596;1.320;2024-01-25T09:17:17;177.30;;;15.88;;
27505;SDS011;14939;43.596;1.320;2024-01-25T09:19:47;158.80;;;14.45;;
27505;SDS011;14939;43.596;1.320;2024-01-25T09:22:14;99.28;;;12.52;;
27505;SDS011;14939;43.596;1.320;2024-01-25T09:24:42;105.90;;;13.15;;
27505;SDS011;14939;43.596;1.320;2024-01-25T09:27:08;112.63;;;14.07;;
27505;SDS011;14939;43.596;1.320;2024-01-25T09:29:34;156.05;;;14.50;;
27505;SDS011;14939;43.596;1.320;2024-01-25T09:31:59;25.50;;;12.60;;
27505;SDS011;14939;43.596;1.320;2024-01-25T09:34:25;138.38;;;13.63;;
27505;SDS011;14939;43.596;1.320;2024-01-25T09:36:51;62.33;;;13.35;;
27505;SDS011;14939;43.596;1.320;2024-01-25T09:39:17;92.97;;;14.50;;
27505;SDS011;14939;43.596;1.320;2024-01-25T09:41:42;217.38;;;16.13;;
27505;SDS011;14939;43.596;1.320;2024-01-25T09:44:08;52.28;;;13.40;;
27505;SDS011;14939;43.596;1.320;2024-01-25T09:46:34;93.60;;;14.82;;
27505;SDS011;14939;43.596;1.320;2024-01-25T09:49:00;68.20;;;15.63;;
27505;SDS011;14939;43.596;1.320;2024-01-25T09:51:27;89.53;;;16.13;;
27505;SDS011;14939;43.596;1.320;2024-01-25T09:54:00;36.40;;;14.65;;
27505;SDS011;14939;43.596;1.320;2024-01-25T09:56:26;96.10;;;16.15;;
27505;SDS011;14939;43.596;1.320;2024-01-25T09:58:55;97.68;;;16.35;;
27505;SDS011;14939;43.596;1.320;2024-01-25T10:01:21;58.75;;;15.15;;
27505;SDS011;14939;43.596;1.320;2024-01-25T10:03:47;50.05;;;15.80;;
27505;SDS011;14939;43.596;1.320;2024-01-25T10:06:13;68.63;;;16.10;;
27505;SDS011;14939;43.596;1.320;2024-01-25T10:08:39;158.55;;;17.38;;
27505;SDS011;14939;43.596;1.320;2024-01-25T10:11:05;77.80;;;16.02;;
27505;SDS011;14939;43.596;1.320;2024-01-25T10:13:39;132.90;;;16.63;;
27505;SDS011;14939;43.596;1.320;2024-01-25T10:16:12;128.50;;;17.10;;
27505;SDS011;14939;43.596;1.320;2024-01-25T10:18:40;161.25;;;17.50;;
27505;SDS011;14939;43.596;1.320;2024-01-25T10:21:08;58.50;;;16.30;;
27505;SDS011;14939;43.596;1.320;2024-01-25T10:23:34;76.57;;;16.88;;
27505;SDS011;14939;43.596;1.320;2024-01-25T10:26:00;28.75;;;15.20;;
27505;SDS011;14939;43.596;1.320;2024-01-25T10:28:26;42.55;;;14.77;;
27505;SDS011;14939;43.596;1.320;2024-01-25T10:30:55;41.17;;;15.00;;
27505;SDS011;14939;43.596;1.320;2024-01-25T10:33:26;47.08;;;15.20;;
27505;SDS011;14939;43.596;1.320;2024-01-25T10:35:56;47.42;;;14.75;;
27505;SDS011;14939;43.596;1.320;2024-01-25T10:38:29;43.42;;;15.73;;
27505;SDS011;14939;43.596;1.320;2024-01-25T10:41:01;45.70;;;16.15;;
27505;SDS011;14939;43.596;1.320;2024-01-25T10:43:28;26.02;;;13.40;;
27505;SDS011;14939;43.596;1.320;2024-01-25T10:45:55;55.38;;;14.50;;
27505;SDS011;14939;43.596;1.320;2024-01-25T10:48:23;85.22;;;17.00;;
27505;SDS011;14939;43.596;1.320;2024-01-25T10:50:52;71.28;;;16.98;;
27505;SDS011;14939;43.596;1.320;2024-01-25T10:53:19;49.85;;;15.77;;
27505;SDS011;14939;43.596;1.320;2024-01-25T10:55:46;27.42;;;15.45;;
27505;SDS011;14939;43.596;1.320;2024-01-25T10:58:13;33.97;;;16.23;;
27505;SDS011;14939;43.596;1.320;2024-01-25T11:00:39;29.02;;;16.98;;
27505;SDS011;14939;43.596;1.320;2024-01-25T11:03:05;32.72;;;16.67;;
27505;SDS011;14939;43.596;1.320;2024-01-25T11:05:31;29.52;;;16.48;;
27505;SDS011;14939;43.596;1.320;2024-01-25T11:07:57;62.83;;;17.38;;
27505;SDS011;14939;43.596;1.320;2024-01-25T11:10:26;25.35;;;16.25;;
27505;SDS011;14939;43.596;1.320;2024-01-25T11:12:56;25.95;;;15.63;;
27505;SDS011;14939;43.596;1.320;2024-01-25T11:15:30;29.27;;;17.35;;
27505;SDS011;14939;43.596;1.320;2024-01-25T11:18:00;42.38;;;18.40;;
27505;SDS011;14939;43.596;1.320;2024-01-25T11:20:27;31.63;;;19.05;;
27505;SDS011;14939;43.596;1.320;2024-01-25T11:22:56;34.63;;;19.23;;
27505;SDS011;14939;43.596;1.320;2024-01-25T11:25:36;26.95;;;19.00;;
27505;SDS011;14939;43.596;1.320;2024-01-25T11:28:03;37.63;;;20.73;;
27505;SDS011;14939;43.596;1.320;2024-01-25T11:30:33;30.50;;;19.90;;
27505;SDS011;14939;43.596;1.320;2024-01-25T11:33:00;34.00;;;19.67;;
27505;SDS011;14939;43.596;1.320;2024-01-25T11:35:29;29.27;;;19.75;;
27505;SDS011;14939;43.596;1.320;2024-01-25T11:37:54;34.50;;;20.30;;
27505;SDS011;14939;43.596;1.320;2024-01-25T11:40:20;30.90;;;20.67;;
27505;SDS011;14939;43.596;1.320;2024-01-25T11:42:47;29.42;;;19.52;;
27505;SDS011;14939;43.596;1.320;2024-01-25T11:45:14;30.17;;;21.42;;
27505;SDS011;14939;43.596;1.320;2024-01-25T11:47:40;28.77;;;20.17;;
27505;SDS011;14939;43.596;1.320;2024-01-25T11:50:08;28.23;;;20.73;;
27505;SDS011;14939;43.596;1.320;2024-01-25T11:52:34;29.88;;;20.27;;
27505;SDS011;14939;43.596;1.320;2024-01-25T11:55:04;31.25;;;21.13;;
27505;SDS011;14939;43.596;1.320;2024-01-25T11:57:34;30.67;;;19.92;;
27505;SDS011;14939;43.596;1.320;2024-01-25T12:00:02;28.65;;;19.40;;
27505;SDS011;14939;43.596;1.320;2024-01-25T12:02:32;27.48;;;19.67;;
27505;SDS011;14939;43.596;1.320;2024-01-25T12:04:58;29.67;;;19.75;;
27505;SDS011;14939;43.596;1.320;2024-01-25T12:07:23;27.95;;;20.42;;
27505;SDS011;14939;43.596;1.320;2024-01-25T12:10:04;29.55;;;19.85;;
27505;SDS011;14939;43.596;1.320;2024-01-25T12:12:31;30.60;;;19.65;;
27505;SDS011;14939;43.596;1.320;2024-01-25T12:15:01;30.02;;;20.13;;
27505;SDS011;14939;43.596;1.320;2024-01-25T12:17:29;29.33;;;20.05;;
27505;SDS011;14939;43.596;1.320;2024-01-25T12:19:56;27.73;;;19.25;;
27505;SDS011;14939;43.596;1.320;2024-01-25T12:22:23;28.20;;;19.25;;
27505;SDS011;14939;43.596;1.320;2024-01-25T12:24:54;25.73;;;18.15;;
27505;SDS011;14939;43.596;1.320;2024-01-25T12:27:21;28.67;;;19.80;;
27505;SDS011;14939;43.596;1.320;2024-01-25T12:29:48;33.17;;;22.67;;
27505;SDS011;14939;43.596;1.320;2024-01-25T12:32:14;30.48;;;22.05;;
27505;SDS011;14939;43.596;1.320;2024-01-25T12:34:40;34.10;;;22.35;;
27505;SDS011;14939;43.596;1.320;2024-01-25T12:37:07;31.67;;;22.48;;
27505;SDS011;14939;43.596;1.320;2024-01-25T12:39:33;33.50;;;22.20;;
27505;SDS011;14939;43.596;1.320;2024-01-25T12:41:58;34.53;;;21.63;;
27505;SDS011;14939;43.596;1.320;2024-01-25T12:44:24;47.00;;;31.45;;
27505;SDS011;14939;43.596;1.320;2024-01-25T12:46:50;51.13;;;32.28;;
27505;SDS011;14939;43.596;1.320;2024-01-25T12:49:16;60.38;;;34.20;;
27505;SDS011;14939;43.596;1.320;2024-01-25T12:51:43;55.97;;;33.75;;
27505;SDS011;14939;43.596;1.320;2024-01-25T12:54:08;54.15;;;33.20;;
27505;SDS011;14939;43.596;1.320;2024-01-25T12:56:34;48.67;;;31.15;;
27505;SDS011;14939;43.596;1.320;2024-01-25T12:59:00;46.33;;;27.80;;
27505;SDS011;14939;43.596;1.320;2024-01-25T13:01:25;40.65;;;24.92;;
27505;SDS011;14939;43.596;1.320;2024-01-25T13:03:52;43.88;;;28.77;;
27505;SDS011;14939;43.596;1.320;2024-01-25T13:06:17;36.53;;;24.35;;
27505;SDS011;14939;43.596;1.320;2024-01-25T13:08:43;34.40;;;22.48;;
27505;SDS011;14939;43.596;1.320;2024-01-25T13:11:11;33.83;;;20.80;;
27505;SDS011;14939;43.596;1.320;2024-01-25T13:13:37;31.95;;;21.35;;
27505;SDS011;14939;43.596;1.320;2024-01-25T13:16:03;33.95;;;24.73;;
27505;SDS011;14939;43.596;1.320;2024-01-25T13:18:29;31.50;;;21.45;;
27505;SDS011;14939;43.596;1.320;2024-01-25T13:20:54;34.95;;;23.48;;
27505;SDS011;14939;43.596;1.320;2024-01-25T13:23:20;35.58;;;23.88;;
27505;SDS011;14939;43.596;1.320;2024-01-25T13:25:46;31.20;;;23.05;;
27505;SDS011;14939;43.596;1.320;2024-01-25T13:28:11;35.45;;;23.02;;
27505;SDS011;14939;43.596;1.320;2024-01-25T13:30:37;34.30;;;26.33;;
27505;SDS011;14939;43.596;1.320;2024-01-25T13:33:02;31.33;;;21.98;;
27505;SDS011;14939;43.596;1.320;2024-01-25T13:35:28;29.65;;;20.48;;
27505;SDS011;14939;43.596;1.320;2024-01-25T13:37:54;26.83;;;18.95;;
27505;SDS011;14939;43.596;1.320;2024-01-25T13:40:21;26.45;;;19.27;;
27505;SDS011;14939;43.596;1.320;2024-01-25T13:42:46;22.58;;;16.88;;
27505;SDS011;14939;43.596;1.320;2024-01-25T13:45:12;24.38;;;16.50;;
27505;SDS011;14939;43.596;1.320;2024-01-25T13:47:37;20.35;;;15.23;;
27505;SDS011;14939;43.596;1.320;2024-01-25T13:50:03;19.58;;;14.88;;
27505;SDS011;14939;43.596;1.320;2024-01-25T13:52:29;19.90;;;14.55;;
27505;SDS011;14939;43.596;1.320;2024-01-25T13:54:55;16.85;;;12.93;;
27505;SDS011;14939;43.596;1.320;2024-01-25T13:57:20;18.38;;;13.68;;
27505;SDS011;14939;43.596;1.320;2024-01-25T13:59:48;23.08;;;15.05;;
27505;SDS011;14939;43.596;1.320;2024-01-25T14:02:14;20.33;;;14.52;;
27505;SDS011;14939;43.596;1.320;2024-01-25T14:04:40;22.40;;;16.65;;
27505;SDS011;14939;43.596;1.320;2024-01-25T14:07:06;19.08;;;14.68;;
27505;SDS011;14939;43.596;1.320;2024-01-25T14:09:32;17.85;;;13.80;;
27505;SDS011;14939;43.596;1.320;2024-01-25T14:11:58;18.17;;;14.73;;
27505;SDS011;14939;43.596;1.320;2024-01-25T14:14:24;19.80;;;13.30;;
27505;SDS011;14939;43.596;1.320;2024-01-25T14:16:50;18.38;;;13.38;;